Time;durP1;ratioP1;P1;durP2;ratioP2;P2;SDS_P1;SDS_P2;PMS_P1;PMS_P2;Temp;Humidity;BMP_temperature;BMP_pressure;BME280_temperature;BME280_humidity;BME280_pressure;Samples;Min_cycle;Max_cycle;Signal;HPM_P1;HPM_P2
2022/06/21 00:02:14;;;;;;;4.97;0.95;;;12.50;99.70;;;;;;5069197;28;20546;-44
2022/06/21 00:04:40;;;;;;;4.68;0.60;;;12.40;99.30;;;;;;5058133;28;20102;-44
2022/06/21 00:07:10;;;;;;;4.57;1.15;;;12.40;98.90;;;;;;5067517;28;20051;-45
2022/06/21 00:09:36;;;;;;;5.22;0.95;;;12.30;99.30;;;;;;5070732;28;20048;-44
2022/06/21 00:12:01;;;;;;;4.18;0.80;;;12.30;99.30;;;;;;5055287;28;20456;-44
2022/06/21 00:14:27;;;;;;;4.90;1.05;;;12.30;99.50;;;;;;5050504;28;20045;-45
2022/06/21 00:16:53;;;;;;;5.80;0.80;;;12.20;99.70;;;;;;5063923;28;20410;-46
2022/06/21 00:19:22;;;;;;;7.97;1.40;;;12.20;99.90;;;;;;5069922;28;20169;-46
2022/06/21 00:21:48;;;;;;;2.38;0.80;;;12.20;99.90;;;;;;5065783;28;20417;-45
2022/06/21 00:24:16;;;;;;;3.30;0.82;;;12.20;99.90;;;;;;5061739;28;20037;-44
2022/06/21 00:26:43;;;;;;;5.90;1.13;;;12.20;99.90;;;;;;5062191;28;20108;-44
2022/06/21 00:29:09;;;;;;;3.33;1.17;;;12.10;99.90;;;;;;5070748;28;20044;-44
2022/06/21 00:31:36;;;;;;;3.78;1.02;;;12.10;99.90;;;;;;5061096;28;20036;-44
2022/06/21 00:34:11;;;;;;;10.70;1.17;;;12.00;99.90;;;;;;5052557;28;20126;-44
2022/06/21 00:36:37;;;;;;;5.05;1.25;;;12.00;99.90;;;;;;5068438;28;20371;-44
2022/06/21 00:39:05;;;;;;;2.45;0.70;;;12.00;99.90;;;;;;5069616;28;20502;-45
2022/06/21 00:41:48;;;;;;;7.70;1.00;;;12.00;99.90;;;;;;5063134;28;20037;-44
2022/06/21 00:44:25;;;;;;;4.28;0.65;;;12.00;99.90;;;;;;5049946;28;20482;-44
2022/06/21 00:47:16;;;;;;;3.33;0.70;;;11.90;99.90;;;;;;5051375;28;20037;-44
2022/06/21 00:50:31;;;;;;;2.60;0.90;;;11.90;99.90;;;;;;5050651;28;20529;-45
2022/06/21 00:53:21;;;;;;;4.38;0.90;;;11.80;99.90;;;;;;5066503;28;20045;-44
2022/06/21 00:55:52;;;;;;;3.55;0.90;;;11.80;99.90;;;;;;5055099;28;20079;-45
2022/06/21 00:58:21;;;;;;;3.13;1.05;;;11.80;99.90;;;;;;5067765;28;20171;-44
2022/06/21 01:01:01;;;;;;;3.53;0.65;;;11.70;99.90;;;;;;5066112;28;20123;-44
2022/06/21 01:03:38;;;;;;;3.40;0.73;;;11.70;99.90;;;;;;5049487;28;20068;-44
2022/06/21 01:06:09;;;;;;;2.80;0.52;;;11.70;99.90;;;;;;5054443;28;20043;-44
2022/06/21 01:08:40;;;;;;;2.03;0.80;;;11.70;99.90;;;;;;5068571;28;20040;-46
2022/06/21 01:11:11;;;;;;;0.80;0.50;;;11.70;99.90;;;;;;5069918;28;20101;-45
2022/06/21 01:13:43;;;;;;;2.85;0.88;;;11.70;99.90;;;;;;5050104;28;20499;-44
2022/06/21 01:16:09;;;;;;;3.95;0.77;;;11.70;99.90;;;;;;5050122;28;20040;-46
2022/06/21 01:18:35;;;;;;;2.95;0.75;;;11.70;99.90;;;;;;5067668;28;20139;-45
2022/06/21 01:21:02;;;;;;;;;;;11.70;99.90;;;;;;5070045;28;20052;-44
2022/06/21 01:23:49;;;;;;;1.60;0.70;;;11.60;99.90;;;;;;5051718;28;20242;-44
2022/06/21 01:26:40;;;;;;;1.90;0.80;;;11.60;99.90;;;;;;5049567;28;20053;-45
2022/06/21 01:29:10;;;;;;;2.97;0.77;;;11.50;99.90;;;;;;5049974;28;20045;-44
2022/06/21 01:31:35;;;;;;;4.97;0.57;;;11.40;99.90;;;;;;5049582;28;20045;-45
2022/06/21 01:34:01;;;;;;;2.57;1.03;;;11.30;99.90;;;;;;5068723;28;20414;-44
2022/06/21 01:36:32;;;;;;;2.00;0.90;;;11.30;99.90;;;;;;5066664;28;20309;-44
2022/06/21 01:39:03;;;;;;;1.75;0.50;;;11.30;99.90;;;;;;5063807;28;20044;-44
2022/06/21 01:41:54;;;;;;;3.50;0.82;;;11.20;99.90;;;;;;5059733;28;20439;-45
2022/06/21 01:44:32;;;;;;;5.32;1.77;;;11.20;99.90;;;;;;5069025;28;20497;-44
2022/06/21 01:47:02;;;;;;;3.78;1.80;;;11.20;99.90;;;;;;5063085;28;20100;-44
2022/06/21 01:49:31;;;;;;;4.50;1.40;;;11.10;99.90;;;;;;5049216;28;20045;-44
2022/06/21 01:52:05;;;;;;;2.30;0.88;;;11.20;99.90;;;;;;5054000;28;20390;-44
2022/06/21 01:54:36;;;;;;;1.95;0.82;;;11.20;99.90;;;;;;5069399;28;20083;-44
2022/06/21 01:57:02;;;;;;;1.85;1.02;;;11.10;99.90;;;;;;5063144;28;20048;-45
2022/06/21 01:59:36;;;;;;;3.65;1.70;;;11.10;99.90;;;;;;5068692;28;20413;-45
2022/06/21 02:02:10;;;;;;;5.13;1.88;;;11.10;99.90;;;;;;5067826;28;20500;-43
2022/06/21 02:04:50;;;;;;;4.38;1.45;;;11.10;99.90;;;;;;5053004;28;20037;-44
2022/06/21 02:07:21;;;;;;;3.90;1.00;;;11.10;99.90;;;;;;5058585;28;20394;-44
2022/06/21 02:10:05;;;;;;;5.32;0.60;;;11.10;99.90;;;;;;5072015;28;20052;-45
2022/06/21 02:12:32;;;;;;;3.45;1.55;;;11.10;99.90;;;;;;5066383;28;20041;-44
2022/06/21 02:15:00;;;;;;;1.35;0.50;;;11.00;99.90;;;;;;5052669;28;20041;-45
2022/06/21 02:17:30;;;;;;;3.05;1.30;;;11.00;99.90;;;;;;5058398;28;20403;-43
2022/06/21 02:20:29;;;;;;;4.15;0.70;;;11.00;99.90;;;;;;5072484;28;20097;-44
2022/06/21 02:22:54;;;;;;;0.60;0.40;;;11.00;99.90;;;;;;5060092;28;20140;-44
2022/06/21 02:25:24;;;;;;;2.50;0.40;;;10.90;99.90;;;;;;5053696;28;20116;-44
2022/06/21 02:27:53;;;;;;;1.85;0.90;;;10.80;99.90;;;;;;5055289;28;20078;-44
2022/06/21 02:30:22;;;;;;;1.83;1.20;;;10.70;99.90;;;;;;5055421;28;20127;-44
2022/06/21 02:32:50;;;;;;;1.85;1.08;;;10.70;99.90;;;;;;5058212;28;20101;-43
2022/06/21 02:35:25;;;;;;;3.58;0.85;;;10.70;99.90;;;;;;5072871;28;20036;-45
2022/06/21 02:37:54;;;;;;;3.28;0.80;;;10.70;99.90;;;;;;5072555;28;20044;-44
2022/06/21 02:40:33;;;;;;;1.23;0.80;;;10.80;99.90;;;;;;5059667;28;20457;-44
2022/06/21 02:43:19;;;;;;;2.15;0.60;;;10.70;99.90;;;;;;5053063;28;20045;-44
2022/06/21 02:45:56;;;;;;;1.08;0.40;;;10.60;99.90;;;;;;5072674;28;20305;-43
2022/06/21 02:48:30;;;;;;;2.22;0.60;;;10.50;99.90;;;;;;5072317;28;20045;-43
2022/06/21 02:51:01;;;;;;;2.38;1.13;;;10.30;99.90;;;;;;5057799;28;20048;-45
2022/06/21 02:53:37;;;;;;;3.50;1.55;;;10.30;99.90;;;;;;5052021;28;20509;-45
2022/06/21 02:56:14;;;;;;;4.18;1.35;;;10.30;99.90;;;;;;5052179;28;20045;-44
2022/06/21 02:58:45;;;;;;;1.90;1.10;;;10.20;99.90;;;;;;5052561;28;20465;-43
2022/06/21 03:01:18;;;;;;;2.15;1.55;;;10.20;99.90;;;;;;5062666;28;20033;-44
2022/06/21 03:03:45;;;;;;;3.40;1.23;;;10.30;99.90;;;;;;5070503;28;20036;-44
2022/06/21 03:06:15;;;;;;;3.05;0.93;;;10.30;99.90;;;;;;5068765;28;20478;-44
2022/06/21 03:08:49;;;;;;;2.65;0.88;;;10.30;99.90;;;;;;5069882;28;20048;-43
2022/06/21 03:11:15;;;;;;;1.80;1.20;;;10.30;99.90;;;;;;5053153;28;20111;-45
2022/06/21 03:13:41;;;;;;;1.50;0.90;;;10.20;99.90;;;;;;5051843;28;20043;-44
2022/06/21 03:16:13;;;;;;;1.80;0.88;;;10.20;99.90;;;;;;5052986;28;20056;-45
2022/06/21 03:18:44;;;;;;;2.85;1.50;;;10.10;99.90;;;;;;5052585;28;20128;-43
2022/06/21 03:21:13;;;;;;;6.63;1.45;;;10.00;99.90;;;;;;5066088;28;20037;-44
2022/06/21 03:23:42;;;;;;;1.58;1.23;;;10.00;99.90;;;;;;5051485;28;20075;-43
2022/06/21 03:26:08;;;;;;;1.98;1.20;;;10.00;99.90;;;;;;5066179;28;20094;-43
2022/06/21 03:28:37;;;;;;;;;;;10.00;99.90;;;;;;5072672;28;20040;-45
2022/06/21 03:31:12;;;;;;;5.95;2.35;;;10.00;99.90;;;;;;5070035;28;19959;-44
2022/06/21 03:33:41;;;;;;;18.63;1.83;;;9.90;99.90;;;;;;5052243;28;20555;-43
2022/06/21 03:36:09;;;;;;;12.73;1.67;;;9.70;99.90;;;;;;5052943;28;20037;-44
2022/06/21 03:38:37;;;;;;;4.07;1.08;;;9.60;99.90;;;;;;5051841;28;20045;-43
2022/06/21 03:43:53;;;;;;;6.93;1.85;;;9.50;99.90;;;;;;5063708;28;20072;-44
2022/06/21 03:46:37;;;;;;;5.40;3.50;;;9.50;99.90;;;;;;5067446;28;20040;-44
2022/06/21 03:49:10;;;;;;;2.83;2.22;;;9.50;99.90;;;;;;5071585;28;20058;-44
2022/06/21 03:51:42;;;;;;;1.67;0.40;;;9.50;99.90;;;;;;5068525;28;20044;-45
2022/06/21 03:54:14;;;;;;;1.25;0.40;;;9.50;99.90;;;;;;5055078;28;20127;-44
2022/06/21 03:56:49;;;;;;;2.50;1.40;;;9.50;99.90;;;;;;5058872;28;20051;-44
2022/06/21 03:59:21;;;;;;;1.75;1.65;;;9.50;99.90;;;;;;5071314;28;20044;-44
2022/06/21 04:02:16;;;;;;;3.28;1.02;;;9.50;99.90;;;;;;5069577;28;20047;-43
2022/06/21 04:04:46;;;;;;;1.65;1.08;;;9.60;99.90;;;;;;5047259;28;20384;-45
2022/06/21 04:07:12;;;;;;;1.60;0.80;;;9.70;99.90;;;;;;5059809;28;20037;-45
2022/06/21 04:09:43;;;;;;;4.00;0.90;;;9.80;99.90;;;;;;5071061;28;20050;-44
2022/06/21 04:12:22;;;;;;;0.98;0.88;;;9.80;99.90;;;;;;5060893;28;20055;-44
2022/06/21 04:15:02;;;;;;;1.35;1.25;;;9.80;99.90;;;;;;5049611;28;20048;-43
2022/06/21 04:17:44;;;;;;;4.10;1.52;;;9.70;99.90;;;;;;5062211;28;20366;-43
2022/06/21 04:20:32;;;;;;;1.20;1.10;;;9.70;99.90;;;;;;5070737;28;20072;-44
2022/06/21 04:23:15;;;;;;;3.60;1.42;;;9.70;99.90;;;;;;5055317;28;20048;-44
2022/06/21 04:25:55;;;;;;;1.75;1.65;;;9.60;99.90;;;;;;5065411;28;20040;-44
2022/06/21 04:28:28;;;;;;;1.95;0.90;;;9.70;99.90;;;;;;5067278;28;20414;-44
2022/06/21 04:31:02;;;;;;;2.90;0.70;;;9.70;99.90;;;;;;5071029;28;20406;-44
2022/06/21 04:33:33;;;;;;;5.35;1.48;;;9.70;99.90;;;;;;5067326;28;20052;-43
2022/06/21 04:36:13;;;;;;;2.38;1.73;;;9.80;99.90;;;;;;5055960;28;20047;-44
2022/06/21 04:38:52;;;;;;;3.30;1.98;;;9.90;99.90;;;;;;5069037;28;20044;-46
2022/06/21 04:41:25;;;;;;;3.38;1.38;;;10.00;99.90;;;;;;5069110;28;20120;-44
2022/06/21 04:44:00;;;;;;;1.90;1.40;;;10.10;99.90;;;;;;5069788;28;20044;-45
2022/06/21 04:47:06;;;;;;;4.72;2.05;;;10.20;99.90;;;;;;5058578;28;20567;-45
2022/06/21 04:49:51;;;;;;;5.90;3.60;;;10.30;99.90;;;;;;5051654;28;20529;-46
2022/06/21 04:52:24;;;;;;;9.32;4.15;;;10.50;99.90;;;;;;5068479;28;20036;-45
2022/06/21 04:54:49;;;;;;;6.30;4.65;;;10.60;99.90;;;;;;5069173;28;20060;-45
2022/06/21 04:57:17;;;;;;;6.68;5.07;;;10.70;99.90;;;;;;5063780;28;20086;-44
2022/06/21 04:59:49;;;;;;;22.83;5.93;;;10.80;99.90;;;;;;5050424;28;20045;-45
2022/06/21 05:02:24;;;;;;;9.95;4.63;;;10.90;99.90;;;;;;5051038;28;20068;-44
2022/06/21 05:04:54;;;;;;;11.88;5.90;;;11.10;99.90;;;;;;5064326;28;20047;-44
2022/06/21 05:07:27;;;;;;;12.70;5.05;;;11.30;99.90;;;;;;5049628;28;20071;-45
2022/06/21 05:09:55;;;;;;;6.53;4.45;;;11.30;99.90;;;;;;5050209;28;20313;-44
2022/06/21 05:12:27;;;;;;;12.80;6.95;;;11.50;99.90;;;;;;5053737;28;20040;-45
2022/06/21 05:15:00;;;;;;;13.57;6.88;;;11.60;99.90;;;;;;5068374;28;20041;-44
2022/06/21 05:17:27;;;;;;;10.88;5.93;;;11.70;99.90;;;;;;5068080;28;20037;-44
2022/06/21 05:20:01;;;;;;;8.00;6.03;;;11.80;99.90;;;;;;5068703;28;20072;-44
2022/06/21 05:22:49;;;;;;;15.30;6.25;;;11.90;99.90;;;;;;5065915;28;20036;-44
2022/06/21 05:25:37;;;;;;;11.38;5.72;;;12.00;99.90;;;;;;5049992;28;20081;-44
2022/06/21 05:28:21;;;;;;;8.90;5.20;;;12.10;99.90;;;;;;5052580;28;20036;-44
2022/06/21 05:30:51;;;;;;;6.38;5.25;;;12.10;99.90;;;;;;5060031;28;20044;-46
2022/06/21 05:33:27;;;;;;;10.82;5.85;;;12.10;99.90;;;;;;5065714;28;20429;-44
2022/06/21 05:35:52;;;;;;;8.73;5.68;;;12.20;99.90;;;;;;5060578;28;20079;-45
2022/06/21 05:38:25;;;;;;;6.47;5.05;;;12.30;99.90;;;;;;5060372;28;20080;-44
2022/06/21 05:40:57;;;;;;;14.43;5.63;;;12.30;99.90;;;;;;5050769;28;20048;-45
2022/06/21 05:43:38;;;;;;;11.20;4.88;;;12.40;99.90;;;;;;5059819;28;20040;-44
2022/06/21 05:46:33;;;;;;;12.10;5.50;;;12.50;99.90;;;;;;5050357;28;20167;-44
2022/06/21 05:48:59;;;;;;;10.15;5.40;;;12.50;99.90;;;;;;5057269;28;20052;-44
2022/06/21 05:51:29;;;;;;;11.35;5.93;;;12.60;99.90;;;;;;5055367;28;20041;-45
2022/06/21 05:54:01;;;;;;;8.57;4.90;;;12.70;99.90;;;;;;5069205;28;20053;-46
2022/06/21 05:56:29;;;;;;;12.40;6.82;;;12.70;99.90;;;;;;5068359;28;20115;-44
2022/06/21 05:59:04;;;;;;;11.40;6.15;;;12.80;99.90;;;;;;5052293;28;20722;-45
2022/06/21 06:02:01;;;;;;;10.93;5.15;;;12.90;99.90;;;;;;5068944;28;20049;-44
2022/06/21 06:04:48;;;;;;;11.38;4.10;;;12.90;99.90;;;;;;5067567;28;20076;-44
2022/06/21 06:07:27;;;;;;;7.97;3.83;;;13.00;99.90;;;;;;5051466;28;20040;-45
2022/06/21 06:09:56;;;;;;;7.90;3.08;;;13.10;99.90;;;;;;5067837;28;20052;-44
2022/06/21 06:12:33;;;;;;;7.20;3.50;;;13.10;99.90;;;;;;5056665;28;20111;-44
2022/06/21 06:15:04;;;;;;;7.82;3.25;;;13.30;99.90;;;;;;5058284;28;20490;-44
2022/06/21 06:17:53;;;;;;;12.32;3.20;;;13.40;99.90;;;;;;5051600;28;20053;-45
2022/06/21 06:20:52;;;;;;;57.10;5.75;;;13.50;99.90;;;;;;5058442;28;20056;-43
2022/06/21 06:23:35;;;;;;;12.32;3.33;;;13.60;99.90;;;;;;5056799;28;20458;-44
2022/06/21 06:26:17;;;;;;;9.85;1.80;;;13.70;99.90;;;;;;5055090;28;20474;-44
2022/06/21 06:29:11;;;;;;;8.13;2.00;;;13.80;99.90;;;;;;5051514;28;20044;-45
2022/06/21 06:31:54;;;;;;;8.63;1.60;;;13.90;99.90;;;;;;5053883;28;20048;-44
2022/06/21 06:34:27;;;;;;;5.43;1.52;;;14.00;99.90;;;;;;5056907;28;20052;-44
2022/06/21 06:37:00;;;;;;;10.73;1.98;;;14.10;99.90;;;;;;5056660;28;20059;-44
2022/06/21 06:39:31;;;;;;;8.30;1.52;;;14.20;99.90;;;;;;5050817;28;20048;-45
2022/06/21 06:42:08;;;;;;;3.83;1.15;;;14.30;99.90;;;;;;5056588;28;20557;-45
2022/06/21 06:44:52;;;;;;;6.70;1.70;;;14.40;99.90;;;;;;5054931;28;20046;-44
2022/06/21 06:47:29;;;;;;;3.28;0.85;;;14.50;99.90;;;;;;5062634;28;20560;-45
2022/06/21 06:50:07;;;;;;;7.85;2.17;;;14.60;99.90;;;;;;5068117;28;20039;-45
2022/06/21 06:52:39;;;;;;;9.27;2.17;;;14.70;99.90;;;;;;5057949;28;20402;-46
2022/06/21 06:55:14;;;;;;;5.30;1.20;;;14.80;99.90;;;;;;5057609;28;20041;-45
2022/06/21 06:57:45;;;;;;;8.15;1.02;;;14.90;99.90;;;;;;5063346;28;20520;-44
2022/06/21 07:00:24;;;;;;;3.42;1.05;;;15.00;99.90;;;;;;5064183;28;20043;-45
2022/06/21 07:03:15;;;;;;;6.30;1.00;;;15.00;99.90;;;;;;5067491;28;20158;-44
2022/06/21 07:05:51;;;;;;;5.05;1.70;;;15.10;99.90;;;;;;5068413;28;20036;-45
2022/06/21 07:08:24;;;;;;;5.80;1.15;;;15.20;99.90;;;;;;5050449;28;20045;-44
2022/06/21 07:10:52;;;;;;;17.58;1.55;;;15.40;99.90;;;;;;5066789;28;20109;-44
2022/06/21 07:13:18;;;;;;;8.68;1.10;;;15.40;99.90;;;;;;5062208;28;20112;-44
2022/06/21 07:15:47;;;;;;;6.38;0.95;;;15.60;99.90;;;;;;5062752;28;20165;-47
2022/06/21 07:18:18;;;;;;;10.23;1.63;;;15.70;99.90;;;;;;5061967;28;20051;-46
2022/06/21 07:20:45;;;;;;;9.35;1.90;;;15.70;99.90;;;;;;5061339;28;20047;-45
2022/06/21 07:23:19;;;;;;;7.55;1.15;;;15.80;99.90;;;;;;5066444;28;20033;-45
2022/06/21 07:26:11;;;;;;;8.18;1.08;;;15.80;99.90;;;;;;5068359;28;20043;-45
2022/06/21 07:28:42;;;;;;;4.55;0.93;;;15.80;99.90;;;;;;5026705;28;20409;-44
2022/06/21 07:31:42;;;;;;;9.00;0.90;;;15.70;99.90;;;;;;5044194;28;20028;-45
2022/06/21 07:34:21;;;;;;;22.23;2.35;;;15.70;99.90;;;;;;5041098;28;20057;-44
2022/06/21 07:36:52;;;;;;;6.75;1.13;;;15.60;99.90;;;;;;5067958;28;20044;-46
2022/06/21 07:39:25;;;;;;;4.43;1.45;;;15.60;99.90;;;;;;5055916;28;20621;-44
2022/06/21 07:42:11;;;;;;;2.97;0.90;;;15.50;99.90;;;;;;5059140;28;20033;-44
2022/06/21 07:44:40;;;;;;;4.40;0.90;;;15.50;99.90;;;;;;5055026;28;20051;-45
2022/06/21 07:47:21;;;;;;;7.95;1.10;;;15.50;99.90;;;;;;5056601;28;20407;-44
2022/06/21 07:50:09;;;;;;;3.38;1.17;;;15.60;99.90;;;;;;5055547;28;20120;-45
2022/06/21 07:52:40;;;;;;;6.20;1.55;;;15.60;99.90;;;;;;5044396;28;20052;-46
2022/06/21 07:55:16;;;;;;;7.20;1.58;;;15.50;99.90;;;;;;5044848;28;20059;-44
2022/06/21 07:57:46;;;;;;;6.40;2.00;;;15.70;99.90;;;;;;5051265;28;20033;-44
2022/06/21 08:00:18;;;;;;;3.80;0.70;;;15.80;99.90;;;;;;5045200;28;20552;-44
2022/06/21 08:08:25;;;;;;;8.55;1.30;;;16.00;99.90;;;;;;5032957;28;19917;-44
2022/06/21 08:10:58;;;;;;;5.97;2.15;;;15.90;99.90;;;;;;5054075;28;20044;-44
2022/06/21 08:13:24;;;;;;;10.20;1.92;;;15.80;99.90;;;;;;5049485;28;20067;-44
2022/06/21 08:16:10;;;;;;;4.95;1.67;;;15.80;99.90;;;;;;5047892;28;20060;-45
2022/06/21 08:19:04;;;;;;;4.68;1.40;;;15.80;99.90;;;;;;5046113;28;20612;-45
2022/06/21 08:21:46;;;;;;;4.47;1.75;;;15.90;99.90;;;;;;5055826;28;20037;-45
2022/06/21 08:24:21;;;;;;;7.50;1.50;;;16.00;99.90;;;;;;5044829;28;20305;-44
2022/06/21 08:26:54;;;;;;;9.43;2.25;;;16.10;99.90;;;;;;5055696;28;20041;-45
2022/06/21 08:30:01;;;;;;;7.63;1.20;;;16.20;99.80;;;;;;5045992;28;20120;-44
2022/06/21 08:32:31;;;;;;;5.20;1.15;;;16.30;99.70;;;;;;4999169;28;20054;-46
2022/06/21 08:35:08;;;;;;;2.15;1.15;;;16.40;99.40;;;;;;5001916;28;20049;-46
2022/06/21 08:37:46;;;;;;;2.72;1.05;;;16.50;99.00;;;;;;5002529;28;20185;-46
2022/06/21 08:40:41;;;;;;;6.20;0.88;;;16.50;99.90;;;;;;5002392;28;20046;-47
2022/06/21 08:43:31;;;;;;;3.35;0.98;;;16.60;98.40;;;;;;4993658;28;20109;-45
2022/06/21 08:46:11;;;;;;;7.22;1.73;;;16.70;98.00;;;;;;5002634;28;20041;-45
2022/06/21 08:48:51;;;;;;;4.13;1.10;;;16.80;97.50;;;;;;4999698;28;20084;-44
2022/06/21 08:51:45;;;;;;;4.95;1.38;;;16.90;97.70;;;;;;4998617;28;20034;-45
2022/06/21 08:54:28;;;;;;;4.32;1.60;;;17.00;96.90;;;;;;5001449;28;20115;-45
2022/06/21 08:57:05;;;;;;;3.38;1.17;;;17.00;97.70;;;;;;5000126;28;20042;-45
2022/06/21 08:59:52;;;;;;;2.97;1.40;;;17.10;97.70;;;;;;5002165;28;20578;-45
2022/06/21 09:02:25;;;;;;;2.50;1.20;;;17.10;97.70;;;;;;5000490;28;20117;-44
2022/06/21 09:04:59;;;;;;;4.05;1.17;;;17.20;97.20;;;;;;5001139;28;20269;-44
2022/06/21 09:07:41;;;;;;;2.85;0.80;;;17.40;96.80;;;;;;5058270;28;20136;-44
2022/06/21 09:10:13;;;;;;;4.50;1.35;;;17.40;96.00;;;;;;5063908;28;20036;-45
2022/06/21 09:13:13;;;;;;;5.80;1.25;;;17.50;96.20;;;;;;5047040;28;20571;-45
2022/06/21 09:15:38;;;;;;;5.15;0.82;;;17.50;95.10;;;;;;5061531;28;20237;-46
2022/06/21 09:18:10;;;;;;;5.50;1.10;;;17.60;96.30;;;;;;5051194;28;20045;-44
2022/06/21 09:20:59;;;;;;;3.95;1.27;;;17.70;95.90;;;;;;5045993;28;20506;-44
2022/06/21 09:23:33;;;;;;;5.00;1.17;;;17.70;95.90;;;;;;5055901;28;20036;-44
2022/06/21 09:26:25;;;;;;;5.75;1.33;;;17.80;97.00;;;;;;5058934;28;20744;-44
2022/06/21 09:29:08;;;;;;;4.40;1.08;;;17.90;95.70;;;;;;5052350;28;20512;-44
2022/06/21 09:31:49;;;;;;;3.35;1.02;;;18.00;95.30;;;;;;5051057;28;20040;-45
2022/06/21 09:34:46;;;;;;;6.15;0.90;;;18.10;95.70;;;;;;5054723;28;20044;-44
2022/06/21 09:37:30;;;;;;;3.97;1.03;;;18.10;94.80;;;;;;5051979;28;20045;-45
2022/06/21 09:40:09;;;;;;;4.78;1.23;;;18.20;95.20;;;;;;5052444;28;20299;-47
2022/06/21 09:43:11;;;;;;;3.50;1.13;;;18.20;96.10;;;;;;5052579;28;20055;-44
2022/06/21 09:45:53;;;;;;;3.05;0.85;;;18.30;96.30;;;;;;5052189;28;20452;-45
2022/06/21 09:48:57;;;;;;;2.97;0.90;;;18.40;95.70;;;;;;5055805;28;20056;-45
2022/06/21 09:52:04;;;;;;;5.82;1.20;;;18.40;95.40;;;;;;5052842;28;20048;-45
2022/06/21 09:54:39;;;;;;;2.53;0.55;;;18.50;95.70;;;;;;5053010;28;20128;-44
2022/06/21 09:57:19;;;;;;;5.18;1.00;;;18.60;95.40;;;;;;5050541;28;20037;-45
2022/06/21 10:00:30;;;;;;;10.27;1.83;;;18.70;94.90;;;;;;5051695;28;20049;-44
2022/06/21 10:03:33;;;;;;;3.97;1.10;;;18.80;95.10;;;;;;5054416;28;20040;-44
2022/06/21 10:06:11;;;;;;;4.28;0.60;;;18.90;95.30;;;;;;5052269;28;20033;-45
2022/06/21 10:08:43;;;;;;;1.63;0.40;;;18.80;94.50;;;;;;5051492;28;20037;-45
2022/06/21 10:11:14;;;;;;;2.80;0.30;;;18.70;94.30;;;;;;5046964;28;20041;-45
2022/06/21 10:13:52;;;;;;;4.10;0.50;;;18.70;94.00;;;;;;5047502;28;20374;-45
2022/06/21 10:16:39;;;;;;;4.68;0.40;;;18.70;94.40;;;;;;5052294;28;20040;-45
2022/06/21 10:19:23;;;;;;;6.72;1.15;;;18.80;94.00;;;;;;5055150;28;20447;-45
2022/06/21 10:22:37;;;;;;;5.15;0.65;;;18.80;93.70;;;;;;5056770;28;20425;-45
2022/06/21 10:25:25;;;;;;;5.20;0.43;;;18.90;93.50;;;;;;5001441;28;20568;-45
2022/06/21 10:28:05;;;;;;;3.78;0.80;;;18.90;92.80;;;;;;5052343;28;20053;-45
2022/06/21 10:31:02;;;;;;;5.30;0.50;;;18.90;94.10;;;;;;5055645;28;20389;-44
2022/06/21 10:33:44;;;;;;;1.48;0.43;;;18.90;93.50;;;;;;5057800;28;20067;-45
2022/06/21 10:36:41;;;;;;;2.95;0.70;;;19.00;93.00;;;;;;5055877;28;20111;-44
2022/06/21 10:39:37;;;;;;;9.30;1.13;;;19.00;92.60;;;;;;5053292;28;20037;-44
2022/06/21 10:45:50;;;;;;;2.38;0.30;;;19.00;92.50;;;;;;5056935;28;20044;-45
2022/06/21 10:48:19;;;;;;;8.40;0.75;;;19.10;92.60;;;;;;5055076;28;20052;-46
2022/06/21 10:51:21;;;;;;;3.10;0.35;;;19.20;92.20;;;;;;5057403;28;20033;-45
2022/06/21 10:54:10;;;;;;;3.88;0.70;;;19.30;91.40;;;;;;5047858;28;20094;-45
2022/06/21 10:57:14;;;;;;;17.42;1.02;;;19.30;91.80;;;;;;5048266;28;20040;-45
2022/06/21 11:02:57;;;;;;;4.97;0.50;;;19.40;88.30;;;;;;5054666;28;20316;-45
2022/06/21 11:05:41;;;;;;;2.65;0.20;;;19.40;90.80;;;;;;5056607;28;20052;-44
2022/06/21 11:08:30;;;;;;;0.70;0.20;;;19.40;90.30;;;;;;5055559;28;20077;-48
2022/06/21 11:11:10;;;;;;;3.20;0.60;;;19.50;89.80;;;;;;5054263;28;20131;-46
2022/06/21 11:13:46;;;;;;;4.63;0.57;;;19.50;90.00;;;;;;5053956;28;20099;-44
2022/06/21 11:16:44;;;;;;;1.48;0.22;;;19.60;90.30;;;;;;5053114;28;20052;-45
2022/06/21 11:19:29;;;;;;;3.20;0.65;;;19.60;90.10;;;;;;5055060;28;20561;-45
2022/06/21 11:22:12;;;;;;;1.35;0.20;;;19.70;89.30;;;;;;5057169;28;20078;-46
2022/06/21 11:24:48;;;;;;;1.48;0.28;;;19.80;87.80;;;;;;5051841;28;20069;-44
2022/06/21 11:27:34;;;;;;;1.27;0.20;;;19.90;85.70;;;;;;5055791;28;20049;-44
2022/06/21 11:30:17;;;;;;;2.92;0.40;;;20.00;85.70;;;;;;5056514;28;20102;-45
2022/06/21 11:33:18;;;;;;;1.85;0.40;;;20.10;83.40;;;;;;5055997;28;20036;-47
2022/06/21 11:36:19;;;;;;;2.50;0.20;;;20.20;84.40;;;;;;5056067;28;20453;-47
2022/06/21 11:39:02;;;;;;;2.17;0.20;;;20.30;83.20;;;;;;5057245;28;20033;-44
2022/06/21 11:42:05;;;;;;;0.95;0.10;;;20.40;80.60;;;;;;5056970;28;20036;-45
2022/06/21 11:44:33;;;;;;;4.05;0.57;;;20.50;80.40;;;;;;5057039;28;20372;-45
2022/06/21 11:47:18;;;;;;;1.75;0.20;;;20.60;81.50;;;;;;5055578;28;20739;-45
2022/06/21 11:50:15;;;;;;;3.13;0.20;;;20.60;81.50;;;;;;5055587;28;20429;-47
2022/06/21 11:53:18;;;;;;;1.70;0.10;;;20.70;78.60;;;;;;5056038;28;20120;-44
2022/06/21 11:55:46;;;;;;;0.20;0.10;;;20.80;78.50;;;;;;5056392;28;20091;-45
2022/06/21 11:58:24;;;;;;;1.05;0.30;;;20.80;77.10;;;;;;5056559;28;20076;-45
2022/06/21 12:01:14;;;;;;;2.47;0.40;;;20.80;77.60;;;;;;5055939;28;20520;-45
2022/06/21 12:04:04;;;;;;;0.95;0.10;;;20.80;77.60;;;;;;5054133;28;20029;-44
2022/06/21 12:06:46;;;;;;;1.73;0.20;;;20.80;76.50;;;;;;5057101;28;20410;-45
2022/06/21 12:09:37;;;;;;;2.65;0.20;;;20.80;78.80;;;;;;5056762;28;20051;-45
2022/06/21 12:12:26;;;;;;;4.15;0.85;;;20.80;80.40;;;;;;5055518;28;20025;-44
2022/06/21 12:15:04;;;;;;;4.57;0.70;;;20.80;79.00;;;;;;5056865;28;20044;-46
2022/06/21 12:17:42;;;;;;;2.38;0.20;;;20.80;78.50;;;;;;5055971;28;20039;-44
2022/06/21 12:20:25;;;;;;;2.58;0.20;;;20.60;79.70;;;;;;5055992;28;20029;-44
2022/06/21 12:22:57;;;;;;;2.50;0.30;;;20.60;78.90;;;;;;5056055;28;20402;-45
2022/06/21 12:25:23;;;;;;;2.00;0.22;;;20.60;79.10;;;;;;5056157;28;20449;-46
2022/06/21 12:27:48;;;;;;;1.55;0.20;;;20.60;78.40;;;;;;5055637;28;20093;-45
2022/06/21 12:30:23;;;;;;;0.80;0.30;;;20.60;78.20;;;;;;5054045;28;20151;-44
2022/06/21 12:32:54;;;;;;;2.05;0.30;;;20.50;78.80;;;;;;5054441;28;20062;-45
2022/06/21 12:35:31;;;;;;;1.95;0.20;;;20.50;79.40;;;;;;5054981;28;20498;-47
2022/06/21 12:37:57;;;;;;;1.75;0.20;;;20.50;79.50;;;;;;5053723;28;20028;-45
2022/06/21 12:40:36;;;;;;;4.10;1.98;;;20.50;80.70;;;;;;5056496;28;20036;-45
2022/06/21 12:43:14;;;;;;;0.95;0.20;;;20.50;77.90;;;;;;5054138;28;20032;-44
2022/06/21 12:45:46;;;;;;;0.40;0.17;;;20.60;79.50;;;;;;5050936;28;20541;-45
2022/06/21 12:48:33;;;;;;;1.60;0.20;;;20.70;79.80;;;;;;5056645;28;20048;-45
2022/06/21 12:51:25;;;;;;;59.05;4.20;;;20.70;79.80;;;;;;5045413;28;20329;-44
2022/06/21 12:53:51;;;;;;;3.30;0.20;;;20.60;75.30;;;;;;5053026;28;20395;-44
2022/06/21 12:56:26;;;;;;;;;;;20.60;77.50;;;;;;5053521;28;20153;-45
2022/06/21 12:58:51;;;;;;;0.93;0.30;;;20.60;75.50;;;;;;5049559;28;19932;-45
2022/06/21 13:01:27;;;;;;;4.00;0.30;;;20.60;77.20;;;;;;5052892;28;20044;-45
2022/06/21 13:04:39;;;;;;;2.38;0.20;;;20.70;77.10;;;;;;5055196;28;20071;-45
2022/06/21 13:07:28;;;;;;;2.63;0.30;;;20.80;77.40;;;;;;4999880;28;20079;-46
2022/06/21 13:10:25;;;;;;;1.77;0.20;;;20.80;75.30;;;;;;5050257;28;20166;-46
2022/06/21 13:13:15;;;;;;;2.03;0.20;;;20.80;77.60;;;;;;5052126;28;20048;-45
2022/06/21 13:15:58;;;;;;;1.38;0.20;;;20.80;75.70;;;;;;5056603;28;20040;-45
2022/06/21 13:18:41;;;;;;;1.35;0.28;;;20.80;78.70;;;;;;5052332;28;20607;-45
2022/06/21 13:21:13;;;;;;;1.45;0.55;;;20.80;77.50;;;;;;5050484;28;20132;-45
2022/06/21 13:23:56;;;;;;;1.35;0.20;;;20.70;76.70;;;;;;5051725;28;20033;-45
2022/06/21 13:27:02;;;;;;;2.40;0.30;;;20.70;75.60;;;;;;5054606;28;20032;-45
2022/06/21 13:29:58;;;;;;;2.58;0.98;;;20.60;75.90;;;;;;5051033;28;20037;-47
2022/06/21 13:32:31;;;;;;;2.63;0.10;;;20.70;78.60;;;;;;5052850;28;20047;-44
2022/06/21 13:35:22;;;;;;;3.90;0.10;;;20.70;77.50;;;;;;5055012;28;20291;-44
2022/06/21 13:38:04;;;;;;;4.28;0.20;;;20.70;75.80;;;;;;5053266;28;20059;-44
2022/06/21 13:40:44;;;;;;;0.88;0.50;;;20.80;77.20;;;;;;5053759;28;20462;-45
2022/06/21 13:43:27;;;;;;;2.35;0.30;;;20.80;76.90;;;;;;5053743;28;20037;-45
2022/06/21 13:46:01;;;;;;;0.82;0.22;;;20.80;76.20;;;;;;5055445;28;20210;-47
2022/06/21 13:48:44;;;;;;;0.90;0.20;;;20.80;77.00;;;;;;5052627;28;20045;-46
2022/06/21 13:51:13;;;;;;;2.35;0.20;;;20.80;76.70;;;;;;5053275;28;20048;-45
2022/06/21 13:53:38;;;;;;;0.38;0.10;;;20.90;76.60;;;;;;5052148;28;20194;-45
2022/06/21 13:56:14;;;;;;;;;;;20.90;76.10;;;;;;5054436;28;20124;-45
2022/06/21 13:58:44;;;;;;;1.98;0.20;;;21.10;75.20;;;;;;5052574;28;19982;-46
2022/06/21 14:01:41;;;;;;;2.78;0.20;;;21.10;76.30;;;;;;5055223;28;20508;-45